createdAt,value
2023-12-08T00:00:31.567Z,47.35
2023-12-08T00:02:58.541Z,48.92
2023-12-08T00:05:25.559Z,48.47
2023-12-08T00:07:52.449Z,47.13
2023-12-08T00:10:19.499Z,47.90
2023-12-08T00:12:46.502Z,43.78
2023-12-08T00:15:13.836Z,42.83
2023-12-08T00:17:40.793Z,42.25
2023-12-08T00:20:08.957Z,39.83
2023-12-08T00:22:36.118Z,38.85
2023-12-08T00:25:04.555Z,41.25
2023-12-08T00:27:31.516Z,40.90
2023-12-08T00:29:58.499Z,40.92
2023-12-08T00:32:25.733Z,43.45
2023-12-08T00:34:52.676Z,38.95
2023-12-08T00:37:19.585Z,36.85
2023-12-08T00:39:46.468Z,35.33
2023-12-08T00:42:13.683Z,35.55
2023-12-08T00:44:40.627Z,35.42
2023-12-08T00:47:08.436Z,32.95
2023-12-08T00:49:35.431Z,33.83
2023-12-08T00:52:02.891Z,34.90
2023-12-08T00:54:29.928Z,35.00
2023-12-08T00:56:57.110Z,34.55
2023-12-08T00:59:24.133Z,36.15
2023-12-08T01:01:51.010Z,34.67
2023-12-08T01:04:17.946Z,36.42
2023-12-08T01:06:45.503Z,35.17
2023-12-08T01:09:14.030Z,33.42
2023-12-08T01:11:41.086Z,20.75
2023-12-08T01:14:08.344Z,21.10
2023-12-08T01:16:41.157Z,17.60
2023-12-08T01:19:09.863Z,15.75
2023-12-08T01:21:40.318Z,15.82
2023-12-08T01:24:07.826Z,19.42
2023-12-08T01:26:35.203Z,28.20
2023-12-08T01:29:02.518Z,25.60
2023-12-08T01:31:29.444Z,20.15
2023-12-08T01:33:56.516Z,27.52
2023-12-08T01:36:41.394Z,22.55
2023-12-08T01:39:10.559Z,27.88
2023-12-08T01:41:37.676Z,28.80
2023-12-08T01:44:06.501Z,28.80
2023-12-08T01:46:33.564Z,27.58
2023-12-08T01:49:00.944Z,13.93
2023-12-08T01:51:30.032Z,19.05
2023-12-08T01:53:57.262Z,16.35
2023-12-08T01:56:24.859Z,18.73
2023-12-08T01:58:52.536Z,23.75
2023-12-08T02:01:19.866Z,22.77
2023-12-08T02:03:50.065Z,20.08
2023-12-08T02:06:18.968Z,18.27
2023-12-08T02:08:50.010Z,17.90
2023-12-08T02:11:18.591Z,17.35
2023-12-08T02:13:46.437Z,19.50
2023-12-08T02:16:29.348Z,27.13
2023-12-08T02:18:57.852Z,25.13
2023-12-08T02:21:27.141Z,14.30
2023-12-08T02:23:54.138Z,13.70
2023-12-08T02:26:21.557Z,14.45
2023-12-08T02:28:48.831Z,15.02
2023-12-08T02:31:18.272Z,15.20
2023-12-08T02:33:48.156Z,13.23
2023-12-08T02:36:17.559Z,14.35
2023-12-08T02:38:47.494Z,14.43
2023-12-08T02:41:14.716Z,21.08
2023-12-08T02:43:42.215Z,23.20
2023-12-08T02:46:09.365Z,15.32
2023-12-08T02:48:36.460Z,14.63
2023-12-08T02:51:04.827Z,16.85
2023-12-08T02:53:32.704Z,24.48
2023-12-08T02:55:59.878Z,20.77
2023-12-08T02:58:26.821Z,22.80
2023-12-08T03:00:53.733Z,21.52
2023-12-08T03:03:21.287Z,21.38
2023-12-08T03:05:48.257Z,18.85
2023-12-08T03:08:15.189Z,19.85
2023-12-08T03:10:42.222Z,21.77
2023-12-08T03:13:09.625Z,22.38
2023-12-08T03:15:36.866Z,25.85
2023-12-08T03:18:04.348Z,29.52
2023-12-08T03:20:31.312Z,29.58
2023-12-08T03:22:58.269Z,36.00
2023-12-08T03:25:25.202Z,35.33
2023-12-08T03:27:52.172Z,33.30
2023-12-08T03:30:19.252Z,29.15
2023-12-08T03:32:46.518Z,27.40
2023-12-08T03:35:13.721Z,27.60
2023-12-08T03:37:41.075Z,24.38
2023-12-08T03:40:08.720Z,22.38
2023-12-08T03:42:38.036Z,22.73
2023-12-08T03:45:06.645Z,22.17
2023-12-08T03:47:34.036Z,25.52
2023-12-08T03:50:01.293Z,22.83
2023-12-08T03:52:28.368Z,24.35
2023-12-08T03:54:55.410Z,27.40
2023-12-08T03:57:22.673Z,27.23
2023-12-08T03:59:49.820Z,27.75
2023-12-08T04:02:16.771Z,28.38
2023-12-08T04:04:43.884Z,29.13
2023-12-08T04:07:11.324Z,26.73
2023-12-08T04:09:38.360Z,23.98
2023-12-08T04:12:05.751Z,23.30
2023-12-08T04:14:33.602Z,23.30
2023-12-08T04:17:00.622Z,21.33
2023-12-08T04:19:28.090Z,22.40
2023-12-08T04:21:55.361Z,21.25
2023-12-08T04:24:22.428Z,21.42
2023-12-08T04:26:49.411Z,20.73
2023-12-08T04:29:16.674Z,21.90
2023-12-08T04:31:43.885Z,21.75
2023-12-08T04:34:11.141Z,19.35
2023-12-08T04:36:38.201Z,21.35
2023-12-08T04:39:05.366Z,20.20
2023-12-08T04:41:32.958Z,23.02
2023-12-08T04:43:59.924Z,21.48
2023-12-08T04:46:26.847Z,22.35
2023-12-08T04:48:54.063Z,23.05
2023-12-08T04:51:21.028Z,25.45
2023-12-08T04:53:48.219Z,22.10
2023-12-08T04:56:15.335Z,22.38
2023-12-08T04:58:42.342Z,21.45
2023-12-08T05:01:14.066Z,53.60
2023-12-08T05:03:41.983Z,49.53
2023-12-08T05:06:09.795Z,37.70
2023-12-08T05:08:37.556Z,31.83
2023-12-08T05:11:04.770Z,25.08
2023-12-08T05:13:31.953Z,24.65
2023-12-08T05:15:58.962Z,26.33
2023-12-08T05:18:27.268Z,34.88
2023-12-08T05:20:54.400Z,28.50
2023-12-08T05:23:21.781Z,31.52
2023-12-08T05:25:48.676Z,32.15
2023-12-08T05:28:15.635Z,33.97
2023-12-08T05:30:42.630Z,32.80
2023-12-08T05:33:10.226Z,27.77
2023-12-08T05:35:37.351Z,28.35
2023-12-08T05:38:04.314Z,24.25
2023-12-08T05:40:31.255Z,25.50
2023-12-08T05:42:58.337Z,24.92
2023-12-08T05:45:25.330Z,24.27
2023-12-08T05:47:52.373Z,22.85
2023-12-08T05:50:19.320Z,21.58
2023-12-08T05:52:46.283Z,22.38
2023-12-08T05:55:13.343Z,30.67
2023-12-08T05:57:40.310Z,38.53
2023-12-08T06:00:11.306Z,35.50
2023-12-08T06:02:39.262Z,37.22
2023-12-08T06:05:06.671Z,33.97
2023-12-08T06:07:33.774Z,27.60
2023-12-08T06:10:00.769Z,33.92
2023-12-08T06:12:27.763Z,29.92
2023-12-08T06:14:55.940Z,32.55
2023-12-08T06:17:22.889Z,30.50
2023-12-08T06:19:50.014Z,30.13
2023-12-08T06:22:16.931Z,29.55
2023-12-08T06:24:44.051Z,30.70
2023-12-08T06:27:11.528Z,31.25
2023-12-08T06:29:38.675Z,29.35
2023-12-08T06:32:06.586Z,34.08
2023-12-08T06:34:33.893Z,30.60
2023-12-08T06:37:01.055Z,32.75
2023-12-08T06:39:28.239Z,32.53
2023-12-08T06:41:55.209Z,32.38
2023-12-08T06:44:22.319Z,32.65
2023-12-08T06:46:49.359Z,34.65
2023-12-08T06:49:16.441Z,37.88
2023-12-08T06:51:43.584Z,40.95
2023-12-08T06:54:12.160Z,43.75
2023-12-08T06:56:42.800Z,36.58
2023-12-08T06:59:10.307Z,30.80
2023-12-08T07:01:37.446Z,37.28
2023-12-08T07:04:07.880Z,35.13
2023-12-08T07:06:35.000Z,33.72
2023-12-08T07:09:02.178Z,33.00
2023-12-08T07:11:29.125Z,29.02
2023-12-08T07:13:56.052Z,30.20
2023-12-08T07:16:23.054Z,33.72
2023-12-08T07:18:50.111Z,32.83
2023-12-08T07:21:17.243Z,36.75
2023-12-08T07:23:44.169Z,35.22
2023-12-08T07:26:11.625Z,38.13
2023-12-08T07:28:38.744Z,39.78
2023-12-08T07:31:05.750Z,39.08
2023-12-08T07:33:32.774Z,43.15
2023-12-08T07:35:59.898Z,46.58
2023-12-08T07:38:26.931Z,45.97
2023-12-08T07:40:54.294Z,49.17
2023-12-08T07:43:22.419Z,41.30
2023-12-08T07:45:49.453Z,36.53
2023-12-08T07:48:16.512Z,35.10
2023-12-08T07:50:43.600Z,38.40
2023-12-08T07:53:10.577Z,41.30
2023-12-08T07:55:37.525Z,43.50
2023-12-08T07:58:04.846Z,47.72
2023-12-08T08:00:32.993Z,45.72
2023-12-08T08:03:00.324Z,42.20
2023-12-08T08:05:27.298Z,44.25
2023-12-08T08:07:54.212Z,41.08
2023-12-08T08:10:22.671Z,41.17
2023-12-08T08:12:49.995Z,42.85
2023-12-08T08:15:17.013Z,39.60
2023-12-08T08:17:44.008Z,44.92
2023-12-08T08:20:11.335Z,45.20
2023-12-08T08:22:38.262Z,42.90
2023-12-08T08:25:05.862Z,41.83
2023-12-08T08:27:33.484Z,43.30
2023-12-08T08:30:00.775Z,47.70
2023-12-08T08:32:28.530Z,53.05
2023-12-08T08:34:57.788Z,53.78
2023-12-08T08:37:26.220Z,46.72
2023-12-08T08:39:53.523Z,52.15
2023-12-08T08:42:21.073Z,47.45
2023-12-08T08:44:48.157Z,48.60
2023-12-08T08:47:15.093Z,53.85
2023-12-08T08:49:42.334Z,48.58
2023-12-08T08:52:09.401Z,56.17
2023-12-08T08:54:36.473Z,67.38
2023-12-08T08:57:06.289Z,68.72
2023-12-08T08:59:33.326Z,56.70
2023-12-08T09:02:00.592Z,57.63
2023-12-08T09:04:27.662Z,62.17
2023-12-08T09:06:57.539Z,59.00
2023-12-08T09:09:24.775Z,49.05
2023-12-08T09:11:51.984Z,44.88
2023-12-08T09:14:18.983Z,45.72
2023-12-08T09:16:48.197Z,40.67
2023-12-08T09:19:15.410Z,41.67
2023-12-08T09:21:49.322Z,45.13
2023-12-08T09:24:21.714Z,36.17
2023-12-08T09:26:48.845Z,33.28
2023-12-08T09:29:15.891Z,34.72
2023-12-08T09:31:43.511Z,41.25
2023-12-08T09:34:10.602Z,39.40
2023-12-08T09:36:37.720Z,30.20
2023-12-08T09:39:05.544Z,30.30
2023-12-08T09:41:33.224Z,25.63
2023-12-08T09:44:19.564Z,24.58
2023-12-08T09:46:47.942Z,26.52
2023-12-08T09:49:44.267Z,28.35
2023-12-08T09:52:14.788Z,24.33
2023-12-08T09:54:45.544Z,21.23
2023-12-08T09:57:15.021Z,22.20
2023-12-08T09:59:43.729Z,20.33
2023-12-08T10:02:11.047Z,22.98
2023-12-08T10:04:38.497Z,20.52
2023-12-08T10:07:09.422Z,21.83
2023-12-08T10:09:37.212Z,22.15
2023-12-08T10:12:05.850Z,21.23
2023-12-08T10:14:33.472Z,14.90
2023-12-08T10:17:00.492Z,17.90
2023-12-08T10:19:27.692Z,23.80
2023-12-08T10:22:02.242Z,21.52
2023-12-08T10:24:32.930Z,18.33
2023-12-08T10:27:00.774Z,20.17
2023-12-08T10:29:34.761Z,20.05
2023-12-08T10:32:02.569Z,11.98
2023-12-08T10:34:29.666Z,8.93
2023-12-08T10:36:57.068Z,9.02
2023-12-08T10:39:25.462Z,8.55
2023-12-08T10:41:53.073Z,8.43
2023-12-08T10:44:24.161Z,10.25
2023-12-08T10:46:52.967Z,11.75
2023-12-08T10:49:21.109Z,11.40
2023-12-08T10:51:49.278Z,11.43
2023-12-08T10:54:20.579Z,11.82
2023-12-08T10:56:49.375Z,11.75
2023-12-08T10:59:25.506Z,14.23
2023-12-08T11:01:56.397Z,16.00
2023-12-08T11:04:26.217Z,20.02
2023-12-08T11:07:06.452Z,18.75
2023-12-08T11:09:39.957Z,20.40
2023-12-08T11:12:09.001Z,21.08
2023-12-08T11:14:42.339Z,20.75
2023-12-08T11:17:21.652Z,22.45
2023-12-08T11:19:49.825Z,22.75
2023-12-08T11:22:17.479Z,22.42
2023-12-08T11:24:45.113Z,24.17
2023-12-08T11:27:20.819Z,25.25
2023-12-08T11:30:11.655Z,28.55
2023-12-08T11:33:07.029Z,25.58
2023-12-08T11:35:34.027Z,24.55
2023-12-08T11:38:06.549Z,22.63
2023-12-08T11:40:33.477Z,25.70
2023-12-08T11:43:01.572Z,23.75
2023-12-08T11:45:29.843Z,22.70
2023-12-08T11:47:57.534Z,21.77
2023-12-08T11:50:26.282Z,21.88
2023-12-08T11:52:53.324Z,19.52
2023-12-08T11:55:28.218Z,19.15
2023-12-08T11:58:03.422Z,19.05
2023-12-08T12:00:32.121Z,20.83
2023-12-08T12:03:00.404Z,19.98
2023-12-08T12:05:29.503Z,19.08
2023-12-08T12:07:58.497Z,17.45
2023-12-08T12:10:29.876Z,17.98
2023-12-08T12:13:04.318Z,21.77
2023-12-08T12:15:34.661Z,19.02
2023-12-08T12:18:03.630Z,18.48
2023-12-08T12:20:35.519Z,19.30
2023-12-08T12:23:03.605Z,19.92
2023-12-08T12:25:30.627Z,30.35
2023-12-08T12:27:58.920Z,22.15
2023-12-08T12:30:26.175Z,19.77
2023-12-08T12:32:54.305Z,27.65
2023-12-08T12:35:22.279Z,25.77
2023-12-08T12:37:49.384Z,28.73
2023-12-08T12:40:16.572Z,29.15
2023-12-08T12:42:45.705Z,22.05
2023-12-08T12:45:29.588Z,22.17
2023-12-08T12:48:00.771Z,25.40
2023-12-08T12:50:27.782Z,20.75
2023-12-08T12:53:06.810Z,22.92
2023-12-08T12:55:33.791Z,23.30
2023-12-08T12:58:02.889Z,22.40
2023-12-08T13:00:39.091Z,22.90
2023-12-08T13:03:11.605Z,20.20
2023-12-08T13:05:49.215Z,20.92
2023-12-08T13:08:18.254Z,18.90
2023-12-08T13:10:46.250Z,17.52
2023-12-08T13:13:15.810Z,21.00
2023-12-08T13:15:43.738Z,22.02
2023-12-08T13:18:11.425Z,19.33
2023-12-08T13:20:39.334Z,23.60
2023-12-08T13:23:07.378Z,22.30
2023-12-08T13:25:34.453Z,22.02
2023-12-08T13:28:01.442Z,20.65
2023-12-08T13:30:28.385Z,17.70
2023-12-08T13:32:56.550Z,18.52
2023-12-08T13:35:24.028Z,18.40
2023-12-08T13:37:51.176Z,18.15
2023-12-08T13:40:18.444Z,18.52
2023-12-08T13:42:45.446Z,15.00
2023-12-08T13:45:12.432Z,16.35
2023-12-08T13:47:40.190Z,14.55
2023-12-08T13:50:07.294Z,16.17
2023-12-08T13:52:34.326Z,16.90
2023-12-08T13:55:01.351Z,17.40
2023-12-08T13:57:28.501Z,23.75
2023-12-08T13:59:55.649Z,30.15
2023-12-08T14:02:23.177Z,20.42
2023-12-08T14:04:50.328Z,20.38
2023-12-08T14:07:17.486Z,21.13
2023-12-08T14:09:44.404Z,33.90
2023-12-08T14:12:11.552Z,30.40
2023-12-08T14:14:38.615Z,20.95
2023-12-08T14:17:05.965Z,19.23
2023-12-08T14:19:33.128Z,17.67
2023-12-08T14:22:00.486Z,16.40
2023-12-08T14:24:27.908Z,24.25
2023-12-08T14:26:55.358Z,24.63
2023-12-08T14:29:23.498Z,23.75
2023-12-08T14:31:50.611Z,18.73
2023-12-08T14:34:18.278Z,16.38
2023-12-08T14:36:47.209Z,17.52
2023-12-08T14:39:14.502Z,24.77
2023-12-08T14:41:41.895Z,23.17
2023-12-08T14:44:10.250Z,21.48
2023-12-08T14:46:37.167Z,27.23
2023-12-08T14:49:10.019Z,28.77
2023-12-08T14:51:38.758Z,29.27
2023-12-08T14:54:05.774Z,26.67
2023-12-08T14:56:32.753Z,23.00
2023-12-08T14:58:59.627Z,23.45
2023-12-08T15:01:26.929Z,27.80
2023-12-08T15:03:54.057Z,25.80
2023-12-08T15:06:21.182Z,28.05
2023-12-08T15:08:48.204Z,29.80
2023-12-08T15:11:15.270Z,30.15
2023-12-08T15:13:42.319Z,33.30
2023-12-08T15:16:10.320Z,38.63
2023-12-08T15:18:37.891Z,40.38
2023-12-08T15:21:08.469Z,49.95
2023-12-08T15:23:38.063Z,53.55
2023-12-08T15:26:05.110Z,51.25
2023-12-08T15:28:32.014Z,61.92
2023-12-08T15:30:58.920Z,69.95
2023-12-08T15:33:26.154Z,64.90
2023-12-08T15:35:53.328Z,60.40
2023-12-08T15:38:20.289Z,58.67
2023-12-08T15:40:47.190Z,59.05
2023-12-08T15:43:14.136Z,55.47
2023-12-08T15:45:41.201Z,49.38
2023-12-08T15:48:08.540Z,44.15
2023-12-08T15:50:35.607Z,44.95
2023-12-08T15:53:02.777Z,49.45
2023-12-08T15:55:29.767Z,46.92
2023-12-08T15:57:56.677Z,56.25
2023-12-08T16:00:23.935Z,65.18
2023-12-08T16:02:51.061Z,62.65
2023-12-08T16:05:18.161Z,55.22
2023-12-08T16:07:45.105Z,54.95
2023-12-08T16:10:12.091Z,51.53
2023-12-08T16:12:39.234Z,53.65
2023-12-08T16:15:10.008Z,49.47
2023-12-08T16:17:37.148Z,50.92
2023-12-08T16:20:04.476Z,47.30
2023-12-08T16:22:31.470Z,52.88
2023-12-08T16:24:58.415Z,53.05
2023-12-08T16:27:25.692Z,52.53
2023-12-08T16:29:52.850Z,90.05
2023-12-08T16:32:19.807Z,113.47
2023-12-08T16:34:46.873Z,79.78
2023-12-08T16:37:13.870Z,92.78
2023-12-08T16:39:40.799Z,62.33
2023-12-08T16:42:08.019Z,58.00
2023-12-08T16:44:35.008Z,56.05
2023-12-08T16:47:02.236Z,57.78
2023-12-08T16:49:29.363Z,56.80
2023-12-08T16:51:56.466Z,62.60
2023-12-08T16:54:23.809Z,62.70
2023-12-08T16:56:51.419Z,61.33
2023-12-08T16:59:18.440Z,63.30
2023-12-08T17:01:46.555Z,57.63
2023-12-08T17:04:14.661Z,58.47
2023-12-08T17:06:41.666Z,59.75
2023-12-08T17:09:08.713Z,55.28
2023-12-08T17:11:35.700Z,55.25
2023-12-08T17:14:02.660Z,60.47
2023-12-08T17:16:29.629Z,87.82
2023-12-08T17:18:56.939Z,76.20
2023-12-08T17:21:24.097Z,85.93
2023-12-08T17:23:51.336Z,100.68
2023-12-08T17:26:28.896Z,96.18
2023-12-08T17:29:02.947Z,98.85
2023-12-08T17:31:29.847Z,109.45
2023-12-08T17:34:04.775Z,94.78
2023-12-08T17:36:39.124Z,87.95
2023-12-08T17:39:06.142Z,87.50
2023-12-08T17:41:33.105Z,87.20
2023-12-08T17:44:00.059Z,88.07
2023-12-08T17:46:27.024Z,90.68
2023-12-08T17:48:54.158Z,82.68
2023-12-08T17:51:21.341Z,81.63
2023-12-08T17:53:48.340Z,90.13
2023-12-08T17:56:15.781Z,93.25
2023-12-08T17:58:43.846Z,81.47
2023-12-08T18:01:11.027Z,77.60
2023-12-08T18:03:38.135Z,76.95
2023-12-08T18:06:05.524Z,74.40
2023-12-08T18:08:32.457Z,68.10
2023-12-08T18:10:59.360Z,79.28
2023-12-08T18:13:26.256Z,76.47
2023-12-08T18:15:53.176Z,78.07
2023-12-08T18:18:20.154Z,68.47
2023-12-08T18:20:47.120Z,63.83
2023-12-08T18:23:15.363Z,72.97
2023-12-08T18:25:42.921Z,73.22
2023-12-08T18:28:28.090Z,72.28
2023-12-08T18:30:56.697Z,68.22
2023-12-08T18:33:23.759Z,69.97
2023-12-08T18:35:50.761Z,74.85
2023-12-08T18:38:17.718Z,78.93
2023-12-08T18:40:44.617Z,78.00
2023-12-08T18:43:11.581Z,80.97
2023-12-08T18:45:38.495Z,79.47
2023-12-08T18:48:05.928Z,88.03
2023-12-08T18:50:32.883Z,87.20
2023-12-08T18:52:59.816Z,88.90
2023-12-08T18:55:26.813Z,90.13
2023-12-08T18:57:53.846Z,84.70
2023-12-08T19:00:21.040Z,81.93
2023-12-08T19:02:48.050Z,79.43
2023-12-08T19:05:15.612Z,83.03
2023-12-08T19:07:42.636Z,85.40
2023-12-08T19:10:09.929Z,85.03
2023-12-08T19:12:36.916Z,98.57
2023-12-08T19:15:04.619Z,86.05
2023-12-08T19:17:31.742Z,75.45
2023-12-08T19:19:58.691Z,70.97
2023-12-08T19:22:25.883Z,76.82
2023-12-08T19:24:53.338Z,92.75
2023-12-08T19:27:20.244Z,103.45
2023-12-08T19:29:47.502Z,82.50
2023-12-08T19:32:14.736Z,76.40
2023-12-08T19:34:41.642Z,80.15
2023-12-08T19:37:08.540Z,79.60
2023-12-08T19:39:35.779Z,81.13
2023-12-08T19:42:02.814Z,80.35
2023-12-08T19:44:30.607Z,78.55
2023-12-08T19:46:57.668Z,81.05
2023-12-08T19:49:24.852Z,77.75
2023-12-08T19:51:52.122Z,78.93
2023-12-08T19:54:19.961Z,82.18
2023-12-08T19:56:47.245Z,94.10
2023-12-08T19:59:14.483Z,107.20
2023-12-08T20:01:41.454Z,120.05
2023-12-08T20:04:08.503Z,114.40
2023-12-08T20:06:35.605Z,110.53
2023-12-08T20:09:04.080Z,116.35
2023-12-08T20:11:31.385Z,117.15
2023-12-08T20:14:00.269Z,123.72
2023-12-08T20:16:27.162Z,127.82
2023-12-08T20:18:54.292Z,121.13
2023-12-08T20:21:21.263Z,117.93
2023-12-08T20:23:48.369Z,117.07
2023-12-08T20:26:15.719Z,108.63
2023-12-08T20:28:42.963Z,102.00
2023-12-08T20:31:18.494Z,109.68
2023-12-08T20:33:46.159Z,92.47
2023-12-08T20:36:13.586Z,85.22
2023-12-08T20:38:41.226Z,104.05
2023-12-08T20:41:08.613Z,110.05
2023-12-08T20:43:36.035Z,109.38
2023-12-08T20:46:04.121Z,105.10
2023-12-08T20:48:32.331Z,101.70
2023-12-08T20:50:59.439Z,104.65
2023-12-08T20:53:28.461Z,107.90
2023-12-08T20:55:55.383Z,108.50
2023-12-08T20:58:22.390Z,105.80
2023-12-08T21:00:49.562Z,100.88
2023-12-08T21:03:16.660Z,95.95
2023-12-08T21:05:43.640Z,98.13
2023-12-08T21:08:10.588Z,100.20
2023-12-08T21:10:37.544Z,100.47
2023-12-08T21:13:05.827Z,97.95
2023-12-08T21:15:32.844Z,106.55
2023-12-08T21:17:59.861Z,110.65
2023-12-08T21:20:26.803Z,98.93
2023-12-08T21:22:53.706Z,101.30
2023-12-08T21:25:20.648Z,97.57
2023-12-08T21:27:47.648Z,104.57
2023-12-08T21:30:14.709Z,95.38
2023-12-08T21:32:41.720Z,92.15
2023-12-08T21:35:09.120Z,90.03
2023-12-08T21:37:37.647Z,85.43
2023-12-08T21:40:04.931Z,80.72
2023-12-08T21:42:32.053Z,80.45
2023-12-08T21:45:03.231Z,76.72
2023-12-08T21:47:30.781Z,76.25
2023-12-08T21:49:58.114Z,78.63
2023-12-08T21:52:25.019Z,71.88
2023-12-08T21:54:51.957Z,66.88
2023-12-08T21:57:18.941Z,63.60
2023-12-08T21:59:45.920Z,61.75
2023-12-08T22:02:12.915Z,62.25
2023-12-08T22:04:40.257Z,59.58
2023-12-08T22:07:07.228Z,53.90
2023-12-08T22:09:34.323Z,53.53
2023-12-08T22:12:03.479Z,49.08
2023-12-08T22:14:31.650Z,55.00
2023-12-08T22:16:58.538Z,53.05
2023-12-08T22:19:25.567Z,50.88
2023-12-08T22:21:52.666Z,48.40
2023-12-08T22:24:19.642Z,50.40
2023-12-08T22:26:46.672Z,51.17
2023-12-08T22:29:13.730Z,51.17
2023-12-08T22:31:40.628Z,51.13
2023-12-08T22:34:07.793Z,52.20
2023-12-08T22:36:36.516Z,48.08
2023-12-08T22:39:04.347Z,44.72
2023-12-08T22:41:31.508Z,45.78
2023-12-08T22:43:58.391Z,46.63
2023-12-08T22:46:25.349Z,45.28
2023-12-08T22:48:52.377Z,46.30
2023-12-08T22:51:25.633Z,44.50
2023-12-08T22:53:59.825Z,41.90
2023-12-08T22:56:26.797Z,41.90
2023-12-08T22:58:53.730Z,43.65
2023-12-08T23:01:20.653Z,44.75
2023-12-08T23:03:47.692Z,45.13
2023-12-08T23:06:14.622Z,46.45
2023-12-08T23:08:41.762Z,46.15
2023-12-08T23:11:09.774Z,46.03
2023-12-08T23:13:36.898Z,48.65
2023-12-08T23:16:04.259Z,50.58
2023-12-08T23:18:31.308Z,46.70
2023-12-08T23:20:58.403Z,52.58
2023-12-08T23:23:26.540Z,46.53
2023-12-08T23:25:54.827Z,45.95
2023-12-08T23:28:21.816Z,45.03
2023-12-08T23:30:57.270Z,44.75
2023-12-08T23:33:27.704Z,44.83
2023-12-08T23:35:54.751Z,42.22
2023-12-08T23:38:21.679Z,41.33
2023-12-08T23:40:48.796Z,39.88
2023-12-08T23:43:15.865Z,41.75
2023-12-08T23:45:42.816Z,40.25
2023-12-08T23:48:09.861Z,39.70
2023-12-08T23:50:36.842Z,38.97
2023-12-08T23:53:04.379Z,37.60
2023-12-08T23:55:31.247Z,35.30
2023-12-08T23:57:58.234Z,36.88
